Time,TemperatureF,DewpointF,PressureIn,WindDirection,WindDirectionDegrees,WindSpeedMPH,WindSpeedGustMPH,Humidity,HourlyPrecipIn,Conditions,Clouds,dailyrainin,SoftwareType,DateUTC
2013-02-22 00:00:00,37.6,19.2,30.24,SE,145,13.8,13.8,47,0.00,CLR,SCT,0.00,WeatherDisplay:10.37,2013-02-22 05:00:00,
2013-02-22 00:05:00,37.4,19.0,30.24,SSE,165,6.9,6.9,47,0.00,OVC,SCT,0.00,WeatherDisplay:10.37,2013-02-22 05:05:00,
2013-02-22 00:10:00,37.4,19.0,30.25,SSE,157,6.9,6.9,47,0.00,OVC,SCT,0.00,WeatherDisplay:10.37,2013-02-22 05:10:00,
2013-02-22 00:15:00,37.4,19.0,30.25,SE,145,13.8,13.8,47,0.00,OVC,SCT,0.00,WeatherDisplay:10.37,2013-02-22 05:15:00,
2013-02-22 00:20:00,37.2,18.8,30.25,South,175,12.7,12.7,47,0.00,OVC,SCT,0.00,WeatherDisplay:10.37,2013-02-22 05:20:00,
2013-02-22 00:25:00,37.1,18.7,30.25,South,169,6.9,6.9,47,0.00,OVC,SCT,0.00,WeatherDisplay:10.37,2013-02-22 05:25:00,
2013-02-22 00:30:00,37.1,19.2,30.26,SSW,198,8.1,8.1,48,0.00,OVC,SCT,0.00,WeatherDisplay:10.37,2013-02-22 05:30:00,
2013-02-22 00:35:00,37.1,19.2,30.26,SSE,161,6.9,6.9,48,0.00,OVC,SCT,0.00,WeatherDisplay:10.37,2013-02-22 05:35:00,
2013-02-22 00:40:00,37.2,19.3,30.27,SSE,155,10.1,10.1,48,0.00,OVC,SCT,0.00,WeatherDisplay:10.37,2013-02-22 05:40:00,
2013-02-22 00:45:00,37.1,19.7,30.27,SSE,147,6.9,6.9,49,0.00,OVC,SCT,0.00,WeatherDisplay:10.37,2013-02-22 05:45:00,
2013-02-22 00:50:00,37.1,19.2,30.28,SSE,157,8.1,8.1,48,0.00,OVC,SCT,0.00,WeatherDisplay:10.37,2013-02-22 05:50:00,
2013-02-22 00:55:00,37.2,19.3,30.27,SSE,157,11.5,11.5,48,0.00,OVC,SCT,0.00,WeatherDisplay:10.37,2013-02-22 05:55:00,
2013-02-22 01:00:00,37.0,19.6,30.27,SSE,167,9.2,9.2,49,0.00,OVC,SCT,0.00,WeatherDisplay:10.37,2013-02-22 06:00:00,
2013-02-22 01:05:00,36.9,19.5,30.27,SSE,157,10.4,10.4,49,0.00,OVC,SCT,0.00,WeatherDisplay:10.37,2013-02-22 06:05:00,
2013-02-22 01:10:00,36.8,19.4,30.28,SSE,155,10.4,10.4,49,0.00,OVC,SCT,0.00,WeatherDisplay:10.37,2013-02-22 06:10:00,
2013-02-22 01:15:00,36.7,19.3,30.28,South,171,8.1,8.1,49,0.00,OVC,SCT,0.00,WeatherDisplay:10.37,2013-02-22 06:15:00,
2013-02-22 01:20:00,36.7,19.3,30.29,SSE,167,10.4,10.4,49,0.00,OVC,SCT,0.00,WeatherDisplay:10.37,2013-02-22 06:20:00,
2013-02-22 01:25:00,36.6,19.2,30.28,South,172,9.2,9.2,49,0.00,OVC,SCT,0.00,WeatherDisplay:10.37,2013-02-22 06:25:00,
2013-02-22 01:30:00,36.6,19.7,30.28,South,169,5.8,5.8,50,0.00,OVC,SCT,0.00,WeatherDisplay:10.37,2013-02-22 06:30:00,
2013-02-22 01:35:00,36.6,19.7,30.28,SSE,151,10.5,10.5,50,0.00,OVC,SCT,0.00,WeatherDisplay:10.37,2013-02-22 06:35:00,
2013-02-22 01:40:00,36.4,19.5,30.28,SSE,168,11.5,11.5,50,0.00,OVC,SCT,0.00,WeatherDisplay:10.37,2013-02-22 06:40:00,
2013-02-22 01:45:00,36.2,19.8,30.28,SSE,160,10.4,10.4,51,0.00,OVC,SCT,0.00,WeatherDisplay:10.37,2013-02-22 06:45:00,
2013-02-22 01:50:00,36.2,19.8,30.28,South,169,8.1,8.1,51,0.00,OVC,SCT,0.00,WeatherDisplay:10.37,2013-02-22 06:50:00,
2013-02-22 01:55:00,36.2,19.8,30.27,SE,137,8.2,8.2,51,0.00,OVC,SCT,0.00,WeatherDisplay:10.37,2013-02-22 06:55:00,
2013-02-22 02:00:00,36.1,19.7,30.27,SE,145,9.2,9.2,51,0.00,OVC,SCT,0.00,WeatherDisplay:10.37,2013-02-22 07:00:00,
2013-02-22 02:05:00,36.2,19.8,30.27,South,176,10.4,10.4,51,0.00,OVC,SCT,0.00,WeatherDisplay:10.37,2013-02-22 07:05:00,
2013-02-22 02:10:00,36.1,19.7,30.27,SSE,164,10.4,10.4,51,0.00,OVC,SCT,0.00,WeatherDisplay:10.37,2013-02-22 07:10:00,
2013-02-22 02:15:00,35.9,19.5,30.27,SSE,151,6.9,6.9,51,0.00,OVC,SCT,0.00,WeatherDisplay:10.37,2013-02-22 07:15:00,
2013-02-22 02:20:00,36.0,19.6,30.26,SE,130,6.9,6.9,51,0.00,OVC,SCT,0.00,WeatherDisplay:10.37,2013-02-22 07:20:00,
2013-02-22 02:25:00,36.0,19.6,30.26,SSE,162,5.8,5.8,51,0.00,OVC,SCT,0.00,WeatherDisplay:10.37,2013-02-22 07:25:00,
2013-02-22 02:30:00,36.0,19.6,30.26,SSE,150,8.5,8.5,51,0.00,OVC,SCT,0.00,WeatherDisplay:10.37,2013-02-22 07:30:00,
2013-02-22 02:35:00,36.0,19.6,30.27,SSE,160,8.6,8.6,51,0.00,OVC,SCT,0.00,WeatherDisplay:10.37,2013-02-22 07:35:00,
2013-02-22 02:40:00,35.7,19.3,30.26,SSE,160,10.4,10.4,51,0.00,OVC,SCT,0.00,WeatherDisplay:10.37,2013-02-22 07:40:00,
2013-02-22 02:45:00,35.4,19.0,30.26,SE,143,15.0,15.0,51,0.00,OVC,SCT,0.00,WeatherDisplay:10.37,2013-02-22 07:45:00,
2013-02-22 02:50:00,35.5,20.5,30.27,SE,140,19.6,19.6,54,0.00,OVC,SCT,0.00,WeatherDisplay:10.37,2013-02-22 07:50:00,
2013-02-22 02:55:00,35.0,22.5,30.27,SE,138,17.3,17.3,60,0.00,OVC,SCT,0.00,WeatherDisplay:10.37,2013-02-22 07:55:00,
2013-02-22 03:00:00,33.9,23.4,30.27,SE,138,17.3,17.3,65,0.00,OVC,SCT,0.00,WeatherDisplay:10.37,2013-02-22 08:00:00,
2013-02-22 03:05:00,33.2,23.8,30.28,SSE,155,15.0,15.0,68,0.00,OVC,SCT,0.00,WeatherDisplay:10.37,2013-02-22 08:05:00,
2013-02-22 03:10:00,32.6,24.2,30.28,SSE,161,12.7,12.7,71,0.00,OVC,SCT,0.00,WeatherDisplay:10.37,2013-02-22 08:10:00,
2013-02-22 03:15:00,32.2,24.5,30.28,South,169,13.8,13.8,73,0.00,OVC,SCT,0.00,WeatherDisplay:10.37,2013-02-22 08:15:00,
2013-02-22 03:20:00,31.9,24.9,30.28,SSE,167,9.2,9.2,75,0.00,OVC,SCT,0.00,WeatherDisplay:10.37,2013-02-22 08:20:00,
2013-02-22 03:25:00,31.9,25.2,30.27,South,176,10.4,10.4,76,0.00,OVC,SCT,0.00,WeatherDisplay:10.37,2013-02-22 08:25:00,
2013-02-22 03:30:00,31.7,25.3,30.26,SSE,165,8.1,8.1,77,0.00,OVC,SCT,0.00,WeatherDisplay:10.37,2013-02-22 08:30:00,
2013-02-22 03:35:00,31.5,25.4,30.25,SSE,154,12.7,12.7,78,0.00,OVC,SCT,0.00,WeatherDisplay:10.37,2013-02-22 08:35:00,
2013-02-22 03:40:00,31.2,25.7,30.22,South,169,20.7,20.7,80,0.00,OVC,SCT,0.00,WeatherDisplay:10.37,2013-02-22 08:40:00,
2013-02-22 03:45:00,30.7,25.9,30.22,SSE,158,19.6,19.6,82,0.00,OVC,SCT,0.00,WeatherDisplay:10.37,2013-02-22 08:45:00,
2013-02-22 03:50:00,30.3,25.8,30.24,South,179,10.4,10.4,83,0.00,OVC,SCT,0.00,WeatherDisplay:10.37,2013-02-22 08:50:00,
2013-02-22 03:55:00,30.4,26.4,30.25,SSE,165,11.5,11.5,85,0.00,OVC,SCT,0.00,WeatherDisplay:10.37,2013-02-22 08:55:00,
2013-02-22 04:00:00,30.3,26.3,30.25,SSE,150,8.1,8.1,85,0.00,OVC,SCT,0.00,WeatherDisplay:10.37,2013-02-22 09:00:00,
2013-02-22 04:05:00,30.2,26.2,30.25,SSE,152,7.4,7.4,85,0.00,-SN,SCT,0.00,WeatherDisplay:10.37,2013-02-22 09:05:00,
2013-02-22 04:10:00,30.5,26.8,30.24,SSE,160,5.8,5.8,86,0.00,-SN,SCT,0.00,WeatherDisplay:10.37,2013-02-22 09:10:00,
2013-02-22 04:15:00,30.5,26.5,30.23,SSE,152,5.8,5.8,85,0.00,-SN,SCT,0.00,WeatherDisplay:10.37,2013-02-22 09:15:00,
2013-02-22 04:20:00,30.6,26.3,30.23,SE,141,4.6,4.6,84,0.00,-SN,SCT,0.00,WeatherDisplay:10.37,2013-02-22 09:20:00,
2013-02-22 04:25:00,30.5,26.2,30.23,SE,137,8.1,8.2,84,0.00,-SN,SCT,0.00,WeatherDisplay:10.37,2013-02-22 09:25:00,
2013-02-22 04:30:00,30.3,26.3,30.23,SSE,157,11.5,11.5,85,0.00,-SN,SCT,0.00,WeatherDisplay:10.37,2013-02-22 09:30:00,
2013-02-22 04:35:00,30.2,26.2,30.24,ESE,120,11.5,11.5,85,0.00,-SN,SCT,0.00,WeatherDisplay:10.37,2013-02-22 09:35:00,
2013-02-22 04:40:00,30.2,26.2,30.24,SE,133,3.6,3.6,85,0.00,-SN,SCT,0.00,WeatherDisplay:10.37,2013-02-22 09:40:00,
2013-02-22 04:45:00,30.2,26.5,30.23,South,178,8.1,8.1,86,0.00,-SN,SCT,0.00,WeatherDisplay:10.37,2013-02-22 09:45:00,
2013-02-22 04:50:00,30.2,26.5,30.22,SSE,151,0.0,0.0,86,0.00,-SN,SCT,0.00,WeatherDisplay:10.37,2013-02-22 09:50:00,
2013-02-22 04:55:00,30.2,26.5,30.23,SE,128,6.9,6.9,86,0.00,-SN,SCT,0.00,WeatherDisplay:10.37,2013-02-22 09:55:00,
2013-02-22 05:00:00,30.4,26.7,30.22,SSE,157,0.0,0.0,86,0.00,-SN,SCT,0.00,WeatherDisplay:10.37,2013-02-22 10:00:00,
2013-02-22 05:05:00,30.4,26.7,30.22,South,176,2.3,2.3,86,0.00,-SN,SCT,0.00,WeatherDisplay:10.37,2013-02-22 10:05:00,
2013-02-22 05:10:00,30.4,26.7,30.22,South,169,8.0,8.0,86,0.00,-SN,SCT,0.00,WeatherDisplay:10.37,2013-02-22 10:10:00,
2013-02-22 05:15:00,30.3,26.6,30.22,South,174,8.1,8.1,86,0.00,-SN,SCT,0.00,WeatherDisplay:10.37,2013-02-22 10:15:00,
2013-02-22 05:20:00,30.1,26.4,30.22,SSE,158,9.2,9.2,86,0.00,-SN,SCT,0.00,WeatherDisplay:10.37,2013-02-22 10:20:00,
2013-02-22 05:25:00,30.0,26.3,30.22,SSE,162,0.0,0.0,86,0.00,-SN,SCT,0.00,WeatherDisplay:10.37,2013-02-22 10:25:00,
2013-02-22 05:30:00,29.8,26.4,30.22,SSE,162,0.0,0.0,87,0.00,-SN,SCT,0.00,WeatherDisplay:10.37,2013-02-22 10:30:00,
2013-02-22 05:35:00,29.8,26.4,30.22,SSE,157,6.9,6.9,87,0.00,-SN,SCT,0.00,WeatherDisplay:10.37,2013-02-22 10:35:00,
2013-02-22 05:41:00,29.8,26.4,30.23,SSE,148,3.5,0.0,87,0.00,-SN,SCT,0.00,WeatherDisplay:10.37,2013-02-22 10:41:00,
2013-02-22 05:46:00,29.9,26.5,30.23,SE,141,5.8,5.8,87,0.00,-SN,SCT,0.00,WeatherDisplay:10.37,2013-02-22 10:46:00,
2013-02-22 05:51:00,29.8,26.1,30.23,SE,141,11.5,11.5,86,0.00,-SN,SCT,0.00,WeatherDisplay:10.37,2013-02-22 10:51:00,
2013-02-22 05:56:00,29.8,25.8,30.23,SE,141,0.0,0.0,85,0.00,-SN,SCT,0.00,WeatherDisplay:10.37,2013-02-22 10:56:00,
2013-02-22 06:01:00,29.8,25.8,30.24,SE,143,0.0,0.0,85,0.00,-SN,SCT,0.00,WeatherDisplay:10.37,2013-02-22 11:01:00,
2013-02-22 06:06:00,29.7,25.5,30.23,South,171,8.1,8.1,84,0.00,OVC,SCT,0.00,WeatherDisplay:10.37,2013-02-22 11:06:00,
2013-02-22 06:11:00,29.7,25.5,30.23,South,178,6.6,6.6,84,0.00,OVC,SCT,0.00,WeatherDisplay:10.37,2013-02-22 11:11:00,
2013-02-22 06:16:00,29.4,25.2,30.23,SSE,147,6.9,6.9,84,0.00,OVC,SCT,0.00,WeatherDisplay:10.37,2013-02-22 11:16:00,
2013-02-22 06:21:00,29.4,25.2,30.23,SSE,155,8.1,8.1,84,0.00,OVC,SCT,0.00,WeatherDisplay:10.37,2013-02-22 11:21:00,
2013-02-22 06:26:00,29.2,25.0,30.23,SE,140,8.1,8.1,84,0.00,OVC,SCT,0.00,WeatherDisplay:10.37,2013-02-22 11:26:00,
2013-02-22 06:31:00,29.3,25.4,30.23,SE,140,0.0,0.0,85,0.00,OVC,SCT,0.00,WeatherDisplay:10.37,2013-02-22 11:31:00,
2013-02-22 06:36:00,29.3,25.4,30.23,ESE,120,5.8,5.8,85,0.00,OVC,SCT,0.00,WeatherDisplay:10.37,2013-02-22 11:36:00,
2013-02-22 06:41:00,29.1,24.9,30.23,ESE,107,5.8,5.8,84,0.00,OVC,SCT,0.00,WeatherDisplay:10.37,2013-02-22 11:41:00,
2013-02-22 06:46:00,29.0,24.8,30.23,South,169,8.1,8.1,84,0.00,OVC,SCT,0.00,WeatherDisplay:10.37,2013-02-22 11:46:00,
2013-02-22 06:51:00,28.8,24.3,30.23,South,169,9.2,9.2,83,0.00,OVC,SCT,0.00,WeatherDisplay:10.37,2013-02-22 11:51:00,
2013-02-22 06:56:00,28.8,24.6,30.24,SSE,165,5.7,5.7,84,0.00,OVC,SCT,0.00,WeatherDisplay:10.37,2013-02-22 11:56:00,
2013-02-22 07:01:00,28.7,24.2,30.23,SSE,154,8.1,8.1,83,0.00,OVC,SCT,0.00,WeatherDisplay:10.37,2013-02-22 12:01:00,
2013-02-22 07:06:00,28.6,24.1,30.24,South,169,5.8,5.8,83,0.00,OVC,SCT,0.00,WeatherDisplay:10.37,2013-02-22 12:06:00,
2013-02-22 07:11:00,28.6,24.4,30.24,SSE,158,8.1,8.1,84,0.00,OVC,SCT,0.00,WeatherDisplay:10.37,2013-02-22 12:11:00,
2013-02-22 07:16:00,28.9,25.0,30.24,SSE,158,0.0,0.0,85,0.00,OVC,SCT,0.00,WeatherDisplay:10.37,2013-02-22 12:16:00,
2013-02-22 07:21:00,29.1,25.2,30.25,SSE,158,0.0,0.0,85,0.02,RA,SCT,0.02,WeatherDisplay:10.37,2013-02-22 12:21:00,
2013-02-22 07:26:00,29.4,25.4,30.24,SSE,158,0.0,0.0,85,0.02,RA,SCT,0.02,WeatherDisplay:10.37,2013-02-22 12:26:00,
2013-02-22 07:31:00,29.3,25.1,30.25,SSE,158,0.0,0.0,84,0.02,OVC,SCT,0.02,WeatherDisplay:10.37,2013-02-22 12:31:00,
2013-02-22 07:36:00,29.3,25.1,30.25,SSE,158,0.0,0.0,84,0.02,OVC,SCT,0.02,WeatherDisplay:10.37,2013-02-22 12:36:00,
2013-02-22 07:41:00,29.5,25.5,30.25,SSE,158,0.0,0.0,85,0.02,OVC,SCT,0.02,WeatherDisplay:10.37,2013-02-22 12:41:00,
2013-02-22 07:46:00,29.5,25.3,30.25,SE,143,0.0,0.0,84,0.02,OVC,SCT,0.02,WeatherDisplay:10.37,2013-02-22 12:46:00,
2013-02-22 07:51:00,29.5,25.3,30.25,SE,143,0.0,0.0,84,0.02,OVC,SCT,0.02,WeatherDisplay:10.37,2013-02-22 12:51:00,
2013-02-22 07:56:00,29.5,25.3,30.25,SE,143,0.0,0.0,84,0.02,OVC,SCT,0.02,WeatherDisplay:10.37,2013-02-22 12:56:00,
2013-02-22 08:01:00,29.5,25.0,30.25,SE,134,4.6,4.6,83,0.02,OVC,SCT,0.02,WeatherDisplay:10.37,2013-02-22 13:01:00,
2013-02-22 08:06:00,29.3,24.8,30.25,SE,145,0.0,0.0,83,0.02,OVC,SCT,0.02,WeatherDisplay:10.37,2013-02-22 13:06:00,
2013-02-22 08:11:00,29.2,24.7,30.25,SE,145,0.0,0.0,83,0.02,OVC,SCT,0.02,WeatherDisplay:10.37,2013-02-22 13:11:00,
2013-02-22 08:16:00,29.2,25.0,30.25,SE,145,0.0,0.0,84,0.02,OVC,SCT,0.02,WeatherDisplay:10.37,2013-02-22 13:16:00,
2013-02-22 08:21:00,29.2,25.0,30.25,SE,145,0.0,0.0,84,0.00,OVC,SCT,0.02,WeatherDisplay:10.37,2013-02-22 13:21:00,
2013-02-22 08:26:00,29.2,24.7,30.25,South,182,10.4,10.4,83,0.00,OVC,SCT,0.02,WeatherDisplay:10.37,2013-02-22 13:26:00,
2013-02-22 08:31:00,28.9,24.4,30.26,South,171,6.9,6.9,83,0.00,OVC,SCT,0.02,WeatherDisplay:10.37,2013-02-22 13:31:00,
2013-02-22 08:36:00,28.9,24.4,30.26,SSE,157,0.0,0.0,83,0.00,OVC,SCT,0.02,WeatherDisplay:10.37,2013-02-22 13:36:00,
2013-02-22 08:41:00,28.7,24.2,30.26,SSE,158,10.4,10.4,83,0.00,OVC,SCT,0.02,WeatherDisplay:10.37,2013-02-22 13:41:00,
2013-02-22 08:46:00,28.6,24.1,30.26,SSE,147,9.2,9.2,83,0.00,OVC,SCT,0.02,WeatherDisplay:10.37,2013-02-22 13:46:00,
2013-02-22 08:51:00,28.6,24.1,30.27,SSE,155,12.1,12.1,83,0.00,OVC,SCT,0.02,WeatherDisplay:10.37,2013-02-22 13:51:00,
2013-02-22 08:56:00,28.6,24.1,30.27,South,171,9.2,9.2,83,0.00,OVC,SCT,0.02,WeatherDisplay:10.37,2013-02-22 13:56:00,
2013-02-22 09:01:00,28.7,24.2,30.27,SSE,152,10.4,10.4,83,0.00,OVC,SCT,0.02,WeatherDisplay:10.37,2013-02-22 14:01:00,
2013-02-22 09:06:00,28.6,23.8,30.27,SSE,161,9.2,9.2,82,0.00,OVC,SCT,0.02,WeatherDisplay:10.37,2013-02-22 14:06:00,
2013-02-22 09:11:00,28.8,24.3,30.26,South,171,9.2,9.2,83,0.00,OVC,SCT,0.02,WeatherDisplay:10.37,2013-02-22 14:11:00,
2013-02-22 09:16:00,28.9,24.4,30.26,SSE,155,0.0,0.0,83,0.00,OVC,SCT,0.02,WeatherDisplay:10.37,2013-02-22 14:16:00,
2013-02-22 09:21:00,29.0,24.2,30.26,SSE,148,10.4,10.4,82,0.00,OVC,SCT,0.02,WeatherDisplay:10.37,2013-02-22 14:21:00,
2013-02-22 09:26:00,28.9,24.1,30.26,SSE,164,8.1,8.1,82,0.00,OVC,SCT,0.02,WeatherDisplay:10.37,2013-02-22 14:26:00,
2013-02-22 09:31:00,28.9,24.1,30.26,South,184,9.2,9.2,82,0.00,OVC,SCT,0.02,WeatherDisplay:10.37,2013-02-22 14:31:00,
2013-02-22 09:36:00,29.0,24.2,30.26,SSE,152,4.6,4.6,82,0.00,OVC,SCT,0.02,WeatherDisplay:10.37,2013-02-22 14:36:00,
2013-02-22 09:41:00,29.0,24.2,30.25,SSE,152,5.8,5.8,82,0.00,OVC,SCT,0.02,WeatherDisplay:10.37,2013-02-22 14:41:00,
2013-02-22 09:46:00,29.0,24.2,30.25,South,172,5.8,5.8,82,0.00,OVC,SCT,0.02,WeatherDisplay:10.37,2013-02-22 14:46:00,
2013-02-22 09:51:00,29.1,24.6,30.24,South,178,9.2,9.2,83,0.00,OVC,SCT,0.02,WeatherDisplay:10.37,2013-02-22 14:51:00,
2013-02-22 09:56:00,29.2,24.7,30.24,South,172,6.9,6.9,83,0.00,OVC,SCT,0.02,WeatherDisplay:10.37,2013-02-22 14:56:00,
2013-02-22 10:01:00,29.3,24.8,30.24,SSE,168,10.4,10.4,83,0.00,OVC,SCT,0.02,WeatherDisplay:10.37,2013-02-22 15:01:00,
2013-02-22 10:06:00,29.4,24.9,30.24,SSE,160,8.6,8.6,83,0.00,OVC,SCT,0.02,WeatherDisplay:10.37,2013-02-22 15:06:00,
2013-02-22 10:11:00,29.4,24.9,30.24,SSE,151,10.4,10.4,83,0.00,OVC,SCT,0.02,WeatherDisplay:10.37,2013-02-22 15:11:00,
2013-02-22 10:16:00,29.6,25.1,30.24,SSE,148,10.5,10.5,83,0.00,OVC,SCT,0.02,WeatherDisplay:10.37,2013-02-22 15:16:00,
2013-02-22 10:21:00,29.7,24.9,30.24,South,171,10.4,10.4,82,0.00,OVC,SCT,0.02,WeatherDisplay:10.37,2013-02-22 15:21:00,
2013-02-22 10:26:00,29.5,24.7,30.24,SSE,155,11.5,11.5,82,0.00,OVC,SCT,0.02,WeatherDisplay:10.37,2013-02-22 15:26:00,
2013-02-22 10:31:00,29.5,24.7,30.23,South,174,10.4,10.4,82,0.00,OVC,SCT,0.02,WeatherDisplay:10.37,2013-02-22 15:31:00,
2013-02-22 10:36:00,29.5,24.7,30.23,SSE,165,10.4,10.4,82,0.00,OVC,SCT,0.02,WeatherDisplay:10.37,2013-02-22 15:36:00,
2013-02-22 10:41:00,29.7,25.2,30.24,SE,138,8.1,8.1,83,0.00,OVC,SCT,0.02,WeatherDisplay:10.37,2013-02-22 15:41:00,
2013-02-22 10:46:00,29.7,25.2,30.24,SSE,150,10.4,10.4,83,0.00,OVC,SCT,0.02,WeatherDisplay:10.37,2013-02-22 15:46:00,
2013-02-22 10:51:00,30.0,25.5,30.23,South,172,10.4,10.4,83,0.00,OVC,SCT,0.02,WeatherDisplay:10.37,2013-02-22 15:51:00,
2013-02-22 10:56:00,30.1,25.6,30.23,SSE,162,9.2,9.2,83,0.00,OVC,SCT,0.02,WeatherDisplay:10.37,2013-02-22 15:56:00,
2013-02-22 11:01:00,30.3,25.8,30.23,SSE,165,9.2,9.2,83,0.00,OVC,SCT,0.02,WeatherDisplay:10.37,2013-02-22 16:01:00,
2013-02-22 11:06:00,30.3,25.8,30.23,South,172,10.4,10.4,83,0.00,OVC,SCT,0.02,WeatherDisplay:10.37,2013-02-22 16:06:00,
2013-02-22 11:11:00,30.4,25.6,30.24,South,174,9.2,9.2,82,0.00,OVC,SCT,0.02,WeatherDisplay:10.37,2013-02-22 16:11:00,
2013-02-22 11:16:00,30.4,25.6,30.23,SE,145,9.2,9.2,82,0.00,OVC,SCT,0.02,WeatherDisplay:10.37,2013-02-22 16:16:00,
2013-02-22 11:21:00,30.6,26.1,30.23,SSE,160,5.8,5.8,83,0.00,OVC,SCT,0.02,WeatherDisplay:10.37,2013-02-22 16:21:00,
2013-02-22 11:26:00,30.7,26.1,30.23,SSE,155,8.4,8.4,83,0.00,OVC,SCT,0.02,WeatherDisplay:10.37,2013-02-22 16:26:00,
2013-02-22 11:31:00,30.8,26.2,30.23,South,169,8.1,8.1,83,0.00,OVC,SCT,0.02,WeatherDisplay:10.37,2013-02-22 16:31:00,
2013-02-22 11:36:00,30.8,26.2,30.23,SSE,168,10.4,10.4,83,0.01,RA,SCT,0.03,WeatherDisplay:10.37,2013-02-22 16:36:00,
2013-02-22 11:41:00,30.9,26.3,30.23,South,191,6.9,6.9,83,0.01,RA,SCT,0.03,WeatherDisplay:10.37,2013-02-22 16:41:00,
2013-02-22 11:46:00,31.1,26.5,30.23,SSE,150,11.5,11.5,83,0.01,OVC,SCT,0.03,WeatherDisplay:10.37,2013-02-22 16:46:00,
2013-02-22 11:51:00,31.2,26.6,30.22,SE,141,10.4,10.4,83,0.01,OVC,SCT,0.03,WeatherDisplay:10.37,2013-02-22 16:51:00,
2013-02-22 11:56:00,31.2,26.3,30.23,SSE,161,10.4,10.4,82,0.01,OVC,SCT,0.03,WeatherDisplay:10.37,2013-02-22 16:56:00,
2013-02-22 12:01:00,31.1,26.2,30.22,South,175,12.7,12.7,82,0.01,OVC,SCT,0.03,WeatherDisplay:10.37,2013-02-22 17:01:00,
2013-02-22 12:06:00,31.2,26.3,30.22,SSE,148,10.7,10.7,82,0.02,RA,SCT,0.04,WeatherDisplay:10.37,2013-02-22 17:06:00,
2013-02-22 12:11:00,31.2,26.3,30.22,SSE,165,8.2,8.2,82,0.02,RA,SCT,0.04,WeatherDisplay:10.37,2013-02-22 17:11:00,
2013-02-22 12:16:00,31.3,26.1,30.22,SSE,164,9.2,9.2,81,0.02,OVC,SCT,0.04,WeatherDisplay:10.37,2013-02-22 17:16:00,
2013-02-22 12:21:00,31.4,26.5,30.22,SSE,162,10.4,10.4,82,0.02,OVC,SCT,0.04,WeatherDisplay:10.37,2013-02-22 17:21:00,
2013-02-22 12:26:00,31.3,26.1,30.22,South,182,7.2,7.2,81,0.02,OVC,SCT,0.04,WeatherDisplay:10.37,2013-02-22 17:26:00,
2013-02-22 12:31:00,31.6,26.4,30.22,SSE,167,9.2,9.2,81,0.02,OVC,SCT,0.04,WeatherDisplay:10.37,2013-02-22 17:31:00,
2013-02-22 12:36:00,31.5,26.3,30.21,SSE,148,8.6,8.6,81,0.01,OVC,SCT,0.04,WeatherDisplay:10.37,2013-02-22 17:36:00,
2013-02-22 12:41:00,31.6,26.1,30.21,SSE,162,10.4,10.4,80,0.01,OVC,SCT,0.04,WeatherDisplay:10.37,2013-02-22 17:41:00,
2013-02-22 12:46:00,31.6,26.1,30.21,SSE,157,8.1,8.7,80,0.01,OVC,SCT,0.04,WeatherDisplay:10.37,2013-02-22 17:46:00,
2013-02-22 12:51:00,31.8,26.3,30.21,SSE,167,10.4,10.4,80,0.01,OVC,SCT,0.04,WeatherDisplay:10.37,2013-02-22 17:51:00,
2013-02-22 12:56:00,31.8,26.3,30.20,SSE,157,11.5,11.5,80,0.01,OVC,SCT,0.04,WeatherDisplay:10.37,2013-02-22 17:56:00,
2013-02-22 13:01:00,32.0,26.5,30.20,SSE,165,11.5,11.5,80,0.01,OVC,SCT,0.04,WeatherDisplay:10.37,2013-02-22 18:01:00,
2013-02-22 13:06:00,32.1,26.6,30.19,South,172,11.5,11.5,80,0.01,RA,SCT,0.05,WeatherDisplay:10.37,2013-02-22 18:06:00,
2013-02-22 13:11:00,32.5,27.0,30.19,SE,134,9.2,9.2,80,0.01,RA,SCT,0.05,WeatherDisplay:10.37,2013-02-22 18:11:00,
2013-02-22 13:16:00,32.7,27.2,30.18,SSE,154,12.7,12.7,80,0.01,OVC,SCT,0.05,WeatherDisplay:10.37,2013-02-22 18:16:00,
2013-02-22 13:21:00,32.7,27.2,30.18,SE,137,9.2,9.2,80,0.01,OVC,SCT,0.05,WeatherDisplay:10.37,2013-02-22 18:21:00,
2013-02-22 13:26:00,33.0,27.5,30.19,SSE,151,9.2,9.2,80,0.01,OVC,SCT,0.05,WeatherDisplay:10.37,2013-02-22 18:26:00,
2013-02-22 13:31:00,33.0,27.2,30.18,South,176,10.4,10.4,79,0.01,OVC,SCT,0.05,WeatherDisplay:10.37,2013-02-22 18:31:00,
2013-02-22 13:36:00,33.1,27.3,30.18,SE,144,11.5,11.5,79,0.01,OVC,SCT,0.05,WeatherDisplay:10.37,2013-02-22 18:36:00,
2013-02-22 13:41:00,33.1,27.3,30.18,SSE,165,11.5,11.5,79,0.01,OVC,SCT,0.05,WeatherDisplay:10.37,2013-02-22 18:41:00,
2013-02-22 13:46:00,33.3,27.8,30.18,SSE,147,9.2,9.2,80,0.01,OVC,SCT,0.05,WeatherDisplay:10.37,2013-02-22 18:46:00,
2013-02-22 13:51:00,33.4,27.6,30.18,SSE,160,10.4,10.4,79,0.01,OVC,SCT,0.05,WeatherDisplay:10.37,2013-02-22 18:51:00,
2013-02-22 13:56:00,33.4,27.6,30.18,SE,134,8.1,8.1,79,0.01,OVC,SCT,0.05,WeatherDisplay:10.37,2013-02-22 18:56:00,
2013-02-22 14:01:00,33.4,27.6,30.18,SSE,164,10.4,10.4,79,0.01,OVC,SCT,0.05,WeatherDisplay:10.37,2013-02-22 19:01:00,
2013-02-22 14:06:00,33.5,27.7,30.17,South,178,9.2,9.2,79,0.00,OVC,SCT,0.05,WeatherDisplay:10.37,2013-02-22 19:06:00,
2013-02-22 14:11:00,33.5,27.7,30.17,SSE,150,10.4,10.4,79,0.00,OVC,SCT,0.05,WeatherDisplay:10.37,2013-02-22 19:11:00,
2013-02-22 14:16:00,33.5,28.0,30.18,SE,141,9.2,9.2,80,0.00,OVC,SCT,0.05,WeatherDisplay:10.37,2013-02-22 19:16:00,
2013-02-22 14:21:00,33.6,28.1,30.17,SE,136,12.7,12.7,80,0.00,OVC,SCT,0.05,WeatherDisplay:10.37,2013-02-22 19:21:00,
2013-02-22 14:26:00,33.6,27.8,30.17,SSE,161,9.2,9.2,79,0.00,OVC,SCT,0.05,WeatherDisplay:10.37,2013-02-22 19:26:00,
2013-02-22 14:31:00,33.7,28.2,30.17,SE,133,10.4,10.6,80,0.00,OVC,SCT,0.05,WeatherDisplay:10.37,2013-02-22 19:31:00,
2013-02-22 14:36:00,33.6,27.8,30.17,SSE,154,11.5,11.5,79,0.00,OVC,SCT,0.05,WeatherDisplay:10.37,2013-02-22 19:36:00,
2013-02-22 14:41:00,33.4,27.9,30.17,SSE,158,11.5,11.5,80,0.00,OVC,SCT,0.05,WeatherDisplay:10.37,2013-02-22 19:41:00,
2013-02-22 14:46:00,33.5,28.0,30.17,SE,138,12.7,12.7,80,0.00,OVC,SCT,0.05,WeatherDisplay:10.37,2013-02-22 19:46:00,
2013-02-22 14:51:00,33.4,27.9,30.17,South,185,11.5,11.5,80,0.00,OVC,SCT,0.05,WeatherDisplay:10.37,2013-02-22 19:51:00,
2013-02-22 14:56:00,33.6,28.1,30.17,SSE,160,9.2,9.2,80,0.00,OVC,SCT,0.05,WeatherDisplay:10.37,2013-02-22 19:56:00,
2013-02-22 15:01:00,33.5,28.0,30.17,SSE,164,11.7,11.7,80,0.00,OVC,SCT,0.05,WeatherDisplay:10.37,2013-02-22 20:01:00,
2013-02-22 15:06:00,33.5,28.0,30.17,SSE,165,12.7,12.7,80,0.00,OVC,SCT,0.05,WeatherDisplay:10.37,2013-02-22 20:06:00,
2013-02-22 15:11:00,33.5,28.0,30.17,SSE,165,9.2,9.2,80,0.00,OVC,SCT,0.05,WeatherDisplay:10.37,2013-02-22 20:11:00,
2013-02-22 15:16:00,33.5,28.0,30.17,SSE,162,11.5,11.5,80,0.00,OVC,SCT,0.05,WeatherDisplay:10.37,2013-02-22 20:16:00,
2013-02-22 15:21:00,33.5,28.0,30.17,South,169,10.4,10.4,80,0.00,OVC,SCT,0.05,WeatherDisplay:10.37,2013-02-22 20:21:00,
2013-02-22 15:26:00,33.5,28.0,30.17,South,171,9.2,9.2,80,0.00,OVC,SCT,0.05,WeatherDisplay:10.37,2013-02-22 20:26:00,
2013-02-22 15:31:00,33.6,28.1,30.17,South,169,8.1,8.1,80,0.00,OVC,SCT,0.05,WeatherDisplay:10.37,2013-02-22 20:31:00,
2013-02-22 15:36:00,33.5,28.0,30.17,SSE,147,11.5,11.5,80,0.00,OVC,SCT,0.05,WeatherDisplay:10.37,2013-02-22 20:36:00,
2013-02-22 15:41:00,33.5,28.0,30.17,SSE,150,9.2,9.5,80,0.00,OVC,SCT,0.05,WeatherDisplay:10.37,2013-02-22 20:41:00,
2013-02-22 15:46:00,33.7,28.2,30.16,SSE,155,11.5,11.5,80,0.00,OVC,SCT,0.05,WeatherDisplay:10.37,2013-02-22 20:46:00,
2013-02-22 15:51:00,33.5,28.0,30.16,SSE,167,12.7,12.7,80,0.00,OVC,SCT,0.05,WeatherDisplay:10.37,2013-02-22 20:51:00,
2013-02-22 15:56:00,33.4,27.9,30.17,South,178,6.9,6.9,80,0.00,OVC,SCT,0.05,WeatherDisplay:10.37,2013-02-22 20:56:00,
2013-02-22 16:01:00,33.5,28.0,30.16,SSE,164,11.5,11.5,80,0.00,OVC,SCT,0.05,WeatherDisplay:10.37,2013-02-22 21:01:00,
2013-02-22 16:06:00,33.5,28.0,30.17,South,184,9.2,9.2,80,0.00,OVC,SCT,0.05,WeatherDisplay:10.37,2013-02-22 21:06:00,
2013-02-22 16:11:00,33.5,28.0,30.16,SSE,157,6.5,6.5,80,0.00,OVC,SCT,0.05,WeatherDisplay:10.37,2013-02-22 21:11:00,
2013-02-22 16:16:00,33.7,28.2,30.16,SSW,203,4.6,4.6,80,0.00,OVC,SCT,0.05,WeatherDisplay:10.37,2013-02-22 21:16:00,
2013-02-22 16:22:00,33.9,28.4,30.16,South,175,3.5,4.0,80,0.00,OVC,SCT,0.05,WeatherDisplay:10.37,2013-02-22 21:22:00,
2013-02-22 16:27:00,34.0,28.5,30.16,SSE,161,4.6,4.6,80,0.00,OVC,SCT,0.05,WeatherDisplay:10.37,2013-02-22 21:27:00,
2013-02-22 16:32:00,33.9,28.4,30.16,South,181,3.5,3.5,80,0.00,OVC,SCT,0.05,WeatherDisplay:10.37,2013-02-22 21:32:00,
2013-02-22 16:37:00,34.1,28.6,30.15,South,171,9.2,9.2,80,0.00,OVC,SCT,0.05,WeatherDisplay:10.37,2013-02-22 21:37:00,
2013-02-22 16:42:00,34.0,28.5,30.17,SSE,158,4.6,4.6,80,0.00,OVC,SCT,0.05,WeatherDisplay:10.37,2013-02-22 21:42:00,
2013-02-22 16:47:00,34.1,28.6,30.16,SSE,161,9.2,9.2,80,0.00,OVC,SCT,0.05,WeatherDisplay:10.37,2013-02-22 21:47:00,
2013-02-22 16:52:00,34.0,28.5,30.16,SSE,164,8.3,8.3,80,0.00,OVC,SCT,0.05,WeatherDisplay:10.37,2013-02-22 21:52:00,
2013-02-22 16:57:00,33.8,28.3,30.16,South,182,10.4,10.4,80,0.00,OVC,SCT,0.05,WeatherDisplay:10.37,2013-02-22 21:57:00,
2013-02-22 17:02:00,33.9,28.4,30.16,South,169,4.6,4.6,80,0.00,OVC,SCT,0.05,WeatherDisplay:10.37,2013-02-22 22:02:00,
2013-02-22 17:07:00,33.9,28.4,30.16,SSE,158,4.4,4.4,80,0.00,OVC,SCT,0.05,WeatherDisplay:10.37,2013-02-22 22:07:00,
2013-02-22 17:12:00,33.9,28.4,30.17,SSE,164,6.9,6.9,80,0.00,OVC,SCT,0.05,WeatherDisplay:10.37,2013-02-22 22:12:00,
2013-02-22 17:17:00,33.8,28.3,30.17,South,171,4.8,4.8,80,0.00,OVC,SCT,0.05,WeatherDisplay:10.37,2013-02-22 22:17:00,
2013-02-22 17:22:00,33.8,28.3,30.16,SSE,167,9.2,9.2,80,0.00,OVC,SCT,0.05,WeatherDisplay:10.37,2013-02-22 22:22:00,
2013-02-22 17:27:00,33.7,28.5,30.16,SSE,167,6.9,6.9,81,0.00,OVC,SCT,0.05,WeatherDisplay:10.37,2013-02-22 22:27:00,
2013-02-22 17:32:00,33.6,28.4,30.15,SSE,157,4.7,5.1,81,0.00,OVC,SCT,0.05,WeatherDisplay:10.37,2013-02-22 22:32:00,
2013-02-22 17:37:00,33.6,28.4,30.15,SE,137,5.8,6.3,81,0.00,OVC,SCT,0.05,WeatherDisplay:10.37,2013-02-22 22:37:00,
2013-02-22 17:42:00,33.5,28.3,30.14,SSE,151,10.4,10.4,81,0.00,OVC,SCT,0.05,WeatherDisplay:10.37,2013-02-22 22:42:00,
2013-02-22 17:47:00,33.4,28.5,30.15,SSE,168,9.2,9.2,82,0.00,OVC,SCT,0.05,WeatherDisplay:10.37,2013-02-22 22:47:00,
2013-02-22 17:52:00,33.2,28.3,30.15,SE,143,10.5,10.5,82,0.00,OVC,SCT,0.05,WeatherDisplay:10.37,2013-02-22 22:52:00,
2013-02-22 17:57:00,33.2,28.3,30.15,South,182,9.9,9.9,82,0.00,OVC,SCT,0.05,WeatherDisplay:10.37,2013-02-22 22:57:00,
2013-02-22 18:02:00,33.1,28.2,30.15,SSE,157,4.6,4.8,82,0.00,OVC,SCT,0.05,WeatherDisplay:10.37,2013-02-22 23:02:00,
2013-02-22 18:07:00,33.2,28.3,30.16,SSE,164,4.2,4.2,82,0.00,OVC,SCT,0.05,WeatherDisplay:10.37,2013-02-22 23:07:00,
2013-02-22 18:12:00,33.2,28.6,30.16,SSE,160,6.9,6.9,83,0.00,OVC,SCT,0.05,WeatherDisplay:10.37,2013-02-22 23:12:00,
2013-02-22 18:17:00,33.2,28.3,30.16,SSE,162,8.1,8.1,82,0.00,OVC,SCT,0.05,WeatherDisplay:10.37,2013-02-22 23:17:00,
2013-02-22 18:22:00,33.1,28.2,30.16,SSE,161,8.1,8.1,82,0.00,OVC,SCT,0.05,WeatherDisplay:10.37,2013-02-22 23:22:00,
2013-02-22 18:27:00,33.1,28.5,30.16,SSE,157,11.5,11.5,83,0.00,OVC,SCT,0.05,WeatherDisplay:10.37,2013-02-22 23:27:00,
2013-02-22 18:32:00,33.0,28.4,30.16,SSE,158,11.5,11.5,83,0.00,OVC,SCT,0.05,WeatherDisplay:10.37,2013-02-22 23:32:00,
2013-02-22 18:37:00,33.0,28.4,30.16,SSE,148,11.5,11.5,83,0.00,OVC,SCT,0.05,WeatherDisplay:10.37,2013-02-22 23:37:00,
2013-02-22 18:42:00,32.8,28.5,30.16,SSE,167,9.2,9.2,84,0.00,OVC,SCT,0.05,WeatherDisplay:10.37,2013-02-22 23:42:00,
2013-02-22 18:47:00,32.8,28.5,30.16,SSE,160,10.4,10.4,84,0.00,OVC,SCT,0.05,WeatherDisplay:10.37,2013-02-22 23:47:00,
2013-02-22 18:52:00,32.7,28.4,30.16,SE,141,15.0,15.0,84,0.00,OVC,SCT,0.05,WeatherDisplay:10.37,2013-02-22 23:52:00,
2013-02-22 18:57:00,32.5,28.5,30.16,SSE,160,12.7,12.7,85,0.00,OVC,SCT,0.05,WeatherDisplay:10.37,2013-02-22 23:57:00,
2013-02-22 19:02:00,32.5,28.5,30.15,SSE,148,6.9,6.9,85,0.00,OVC,SCT,0.05,WeatherDisplay:10.37,2013-02-23 00:02:00,
2013-02-22 19:07:00,32.5,28.5,30.15,SSE,160,5.8,5.8,85,0.00,OVC,SCT,0.05,WeatherDisplay:10.37,2013-02-23 00:07:00,
2013-02-22 19:12:00,32.7,28.7,30.15,South,175,6.9,6.9,85,0.00,OVC,SCT,0.05,WeatherDisplay:10.37,2013-02-23 00:12:00,
2013-02-22 19:17:00,32.6,28.6,30.15,SSE,165,5.8,5.8,85,0.00,OVC,SCT,0.05,WeatherDisplay:10.37,2013-02-23 00:17:00,
2013-02-22 19:22:00,32.9,28.9,30.15,SSE,154,0.0,0.0,85,0.00,OVC,SCT,0.05,WeatherDisplay:10.37,2013-02-23 00:22:00,
2013-02-22 19:27:00,32.8,28.8,30.15,SSE,157,6.9,6.9,85,0.00,OVC,SCT,0.05,WeatherDisplay:10.37,2013-02-23 00:27:00,
2013-02-22 19:32:00,32.8,28.8,30.15,SSE,158,9.5,9.5,85,0.00,OVC,SCT,0.05,WeatherDisplay:10.37,2013-02-23 00:32:00,
2013-02-22 19:37:00,32.7,28.7,30.15,SE,138,11.5,11.5,85,0.00,OVC,SCT,0.05,WeatherDisplay:10.37,2013-02-23 00:37:00,
2013-02-22 19:42:00,32.5,28.5,30.14,SSE,164,10.4,10.4,85,0.00,OVC,SCT,0.05,WeatherDisplay:10.37,2013-02-23 00:42:00,
2013-02-22 19:47:00,32.3,28.3,30.15,SE,143,10.4,10.4,85,0.00,OVC,SCT,0.05,WeatherDisplay:10.37,2013-02-23 00:47:00,
2013-02-22 19:52:00,32.3,28.6,30.13,South,172,8.1,8.1,86,0.00,OVC,SCT,0.05,WeatherDisplay:10.37,2013-02-23 00:52:00,
2013-02-22 19:57:00,32.3,28.6,30.13,SSE,160,9.7,9.7,86,0.00,OVC,SCT,0.05,WeatherDisplay:10.37,2013-02-23 00:57:00,
2013-02-22 20:02:00,32.3,28.6,30.14,SSE,164,8.1,8.1,86,0.00,-RA,SCT,0.05,WeatherDisplay:10.37,2013-02-23 01:02:00,
2013-02-22 20:07:00,32.2,28.8,30.14,SSE,168,10.4,10.4,87,0.00,-RA,SCT,0.05,WeatherDisplay:10.37,2013-02-23 01:07:00,
2013-02-22 20:12:00,32.3,28.9,30.14,SSW,200,8.2,8.2,87,0.00,-RA,SCT,0.05,WeatherDisplay:10.37,2013-02-23 01:12:00,
2013-02-22 20:17:00,32.3,28.9,30.15,SE,133,12.7,12.7,87,0.00,-RA,SCT,0.05,WeatherDisplay:10.37,2013-02-23 01:17:00,
2013-02-22 20:22:00,32.3,28.9,30.14,SSE,164,12.7,12.7,87,0.00,-RA,SCT,0.05,WeatherDisplay:10.37,2013-02-23 01:22:00,
2013-02-22 20:27:00,32.2,29.0,30.14,SSE,162,13.8,13.8,88,0.00,-RA,SCT,0.05,WeatherDisplay:10.37,2013-02-23 01:27:00,
2013-02-22 20:32:00,32.2,29.0,30.14,South,171,8.1,8.1,88,0.00,-RA,SCT,0.05,WeatherDisplay:10.37,2013-02-23 01:32:00,
2013-02-22 20:37:00,32.2,29.0,30.14,SSE,152,11.5,11.5,88,0.00,-RA,SCT,0.05,WeatherDisplay:10.37,2013-02-23 01:37:00,
2013-02-22 20:42:00,32.2,29.0,30.15,SE,141,11.5,11.5,88,0.00,-RA,SCT,0.05,WeatherDisplay:10.37,2013-02-23 01:42:00,
2013-02-22 20:47:00,32.2,29.0,30.15,SSE,155,8.1,8.1,88,0.00,-RA,SCT,0.05,WeatherDisplay:10.37,2013-02-23 01:47:00,
2013-02-22 20:52:00,32.1,29.2,30.15,SSE,154,9.2,9.2,89,0.00,-RA,SCT,0.05,WeatherDisplay:10.37,2013-02-23 01:52:00,
2013-02-22 20:57:00,32.2,29.3,30.15,SSE,158,10.4,10.4,89,0.00,-RA,SCT,0.05,WeatherDisplay:10.37,2013-02-23 01:57:00,
2013-02-22 21:02:00,32.1,29.2,30.14,SSW,210,5.8,5.8,89,0.00,OVC,SCT,0.05,WeatherDisplay:10.37,2013-02-23 02:02:00,
2013-02-22 21:07:00,32.1,29.2,30.14,ESE,114,8.1,8.1,89,0.00,OVC,SCT,0.05,WeatherDisplay:10.37,2013-02-23 02:07:00,
2013-02-22 21:12:00,32.1,29.2,30.14,SSE,152,10.4,10.4,89,0.00,OVC,SCT,0.05,WeatherDisplay:10.37,2013-02-23 02:12:00,
2013-02-22 21:17:00,31.9,29.0,30.14,SSE,162,9.2,9.2,89,0.00,OVC,SCT,0.05,WeatherDisplay:10.37,2013-02-23 02:17:00,
2013-02-22 21:22:00,32.0,29.1,30.14,SSE,155,10.4,10.4,89,0.00,OVC,SCT,0.05,WeatherDisplay:10.37,2013-02-23 02:22:00,
2013-02-22 21:27:00,31.9,29.3,30.14,SSE,152,11.8,11.8,90,0.00,OVC,SCT,0.05,WeatherDisplay:10.37,2013-02-23 02:27:00,
2013-02-22 21:32:00,31.9,29.3,30.14,SE,144,9.2,9.2,90,0.00,OVC,SCT,0.05,WeatherDisplay:10.37,2013-02-23 02:32:00,
2013-02-22 21:37:00,31.8,29.2,30.13,SE,145,8.1,8.1,90,0.00,OVC,SCT,0.05,WeatherDisplay:10.37,2013-02-23 02:37:00,
2013-02-22 21:42:00,31.9,29.3,30.14,SSE,158,6.9,6.9,90,0.00,OVC,SCT,0.05,WeatherDisplay:10.37,2013-02-23 02:42:00,
2013-02-22 21:47:00,31.8,29.2,30.15,SSE,158,0.0,0.0,90,0.00,OVC,SCT,0.05,WeatherDisplay:10.37,2013-02-23 02:47:00,
2013-02-22 21:52:00,32.0,29.4,30.14,SSE,158,0.0,0.0,90,0.00,OVC,SCT,0.05,WeatherDisplay:10.37,2013-02-23 02:52:00,
2013-02-22 21:57:00,32.1,29.5,30.15,South,179,9.2,9.2,90,0.00,OVC,SCT,0.05,WeatherDisplay:10.37,2013-02-23 02:57:00,
2013-02-22 22:02:00,32.1,29.5,30.14,SSE,164,7.1,7.1,90,0.00,OVC,SCT,0.05,WeatherDisplay:10.37,2013-02-23 03:02:00,
2013-02-22 22:07:00,32.2,29.6,30.15,SSE,162,4.6,4.6,90,0.00,OVC,SCT,0.05,WeatherDisplay:10.37,2013-02-23 03:07:00,
2013-02-22 22:12:00,32.2,29.6,30.14,SSE,161,2.6,2.6,90,0.00,OVC,SCT,0.05,WeatherDisplay:10.37,2013-02-23 03:12:00,
2013-02-22 22:17:00,32.2,29.6,30.14,SSE,157,8.1,8.1,90,0.00,OVC,SCT,0.05,WeatherDisplay:10.37,2013-02-23 03:17:00,
2013-02-22 22:22:00,32.2,29.6,30.15,South,184,0.0,0.0,90,0.00,OVC,SCT,0.05,WeatherDisplay:10.37,2013-02-23 03:22:00,
2013-02-22 22:27:00,32.2,29.6,30.15,South,184,0.0,0.0,90,0.00,OVC,SCT,0.05,WeatherDisplay:10.37,2013-02-23 03:27:00,
2013-02-22 22:32:00,32.2,29.9,30.15,South,184,0.0,0.0,91,0.00,OVC,SCT,0.05,WeatherDisplay:10.37,2013-02-23 03:32:00,
2013-02-22 22:37:00,32.1,29.8,30.16,South,184,0.0,0.0,91,0.00,OVC,SCT,0.05,WeatherDisplay:10.37,2013-02-23 03:37:00,
2013-02-22 22:42:00,32.3,29.7,30.15,SSE,157,6.9,6.9,90,0.00,OVC,SCT,0.05,WeatherDisplay:10.37,2013-02-23 03:42:00,
2013-02-22 22:47:00,32.2,29.9,30.14,SSE,165,5.8,5.8,91,0.00,OVC,SCT,0.05,WeatherDisplay:10.37,2013-02-23 03:47:00,
2013-02-22 22:52:00,32.1,29.8,30.14,SSE,165,0.0,0.0,91,0.00,OVC,SCT,0.05,WeatherDisplay:10.37,2013-02-23 03:52:00,
2013-02-22 22:57:00,32.0,29.7,30.14,SSE,165,0.0,0.0,91,0.00,OVC,SCT,0.05,WeatherDisplay:10.37,2013-02-23 03:57:00,
2013-02-22 23:02:00,31.9,29.8,30.14,SSE,165,0.0,0.0,92,0.00,OVC,SCT,0.05,WeatherDisplay:10.37,2013-02-23 04:02:00,
2013-02-22 23:07:00,32.0,29.9,30.14,SSE,165,0.0,0.0,92,0.00,OVC,SCT,0.05,WeatherDisplay:10.37,2013-02-23 04:07:00,
2013-02-22 23:12:00,32.1,30.0,30.13,SSE,165,0.0,0.0,92,0.00,OVC,SCT,0.05,WeatherDisplay:10.37,2013-02-23 04:12:00,
2013-02-22 23:17:00,32.0,29.9,30.12,SSE,165,0.0,0.0,92,0.00,OVC,SCT,0.05,WeatherDisplay:10.37,2013-02-23 04:17:00,
2013-02-22 23:22:00,32.0,29.9,30.12,SSE,165,0.0,0.0,92,0.00,OVC,SCT,0.05,WeatherDisplay:10.37,2013-02-23 04:22:00,
2013-02-22 23:27:00,32.3,30.2,30.12,SSE,165,0.0,0.0,92,0.00,OVC,SCT,0.05,WeatherDisplay:10.37,2013-02-23 04:27:00,
2013-02-22 23:32:00,32.4,30.3,30.11,SSE,165,0.0,0.0,92,0.00,OVC,SCT,0.05,WeatherDisplay:10.37,2013-02-23 04:32:00,
2013-02-22 23:37:00,32.6,30.5,30.11,SSE,165,0.0,0.0,92,0.00,OVC,SCT,0.05,WeatherDisplay:10.37,2013-02-23 04:37:00,
2013-02-22 23:42:00,32.5,30.2,30.11,SSE,165,0.0,0.0,91,0.00,OVC,SCT,0.05,WeatherDisplay:10.37,2013-02-23 04:42:00,
2013-02-22 23:47:00,32.3,30.0,30.11,SSE,165,0.0,0.0,91,0.00,OVC,SCT,0.05,WeatherDisplay:10.37,2013-02-23 04:47:00,
2013-02-22 23:52:00,32.3,30.2,30.10,SSE,165,0.0,0.0,92,0.00,OVC,SCT,0.05,WeatherDisplay:10.37,2013-02-23 04:52:00,
2013-02-22 23:57:00,32.4,30.3,30.10,SSE,165,0.0,0.0,92,0.00,OVC,SCT,0.05,WeatherDisplay:10.37,2013-02-23 04:57:00,